Ahmeek, MI

4:29 PM EDT on October 24, 2014 (GMT -0400)
Hubbell (Near Hubbell Haven) | Change Station
CLOSE
Current Station
Personal Weather Station
Location: Hubbell, MI
Elevation: 730 ft
Nearby Weather Stations

Elev 730 ft 47.18 °N, 88.43 °W | Updated 12 seconds ago

Partly Cloudy
Partly Cloudy
64.6 °F
Feels Like 64.6 °F
N
0.1
Wind Variable Wind from ESE
Gusts 2.5 mph

Today
High -- | Low -- °F
--% Chance of Precip.
Yesterday
High -- | Low -- °F
Precip. -- in
8:25 AM 6:49 PM
New Moon, 1% visible
Pressure 29.80 in
Visibility 10.0 miles
Clouds Clear
Dew Point 54 °F
Humidity 68%
Rainfall 0.00 in
Snow Depth Not available.
UV 2 out of 12
Pollen 2.00 out of 12
Air Quality Not available.
Flu Activity Sporadic
METAR KCMX 241953Z AUTO 18006KT 10SM CLR 18/08 A2979 RMK AO2 SLP090 T01780078

More Conditions Fewer Conditions

Pressure 29.80 in
Visibility 10.0 miles
Clouds Clear
Dew Point 54 °F
Humidity 68%
Rainfall 0.00 in
Snow Depth Not available.
UV 2 out of 12
Pollen 2.00 out of 12
Air Quality Not available.
Flu Activity Sporadic
METAR KCMX 241953Z AUTO 18006KT 10SM CLR 18/08 A2979 RMK AO2 SLP090 T01780078

More Conditions Fewer Conditions

10-Day Weather Forecast

Almanac

Astronomy

Oct. 24, 2014 Rise Set
Actual Time 8:25 AM EDT 6:49 PM EDT
Civil Twilight 7:53 AM EDT 7:21 PM EDT
Nautical Twilight 7:17 AM EDT 7:56 PM EDT
Astronomical Twilight 6:42 AM EDT 8:32 PM EDT
Moon 9:06 AM EDT 7:26 PM EDT
Length of Visible Light 11h 27m
Length of Day
10h 24m
Tomorrow will be 3m 11s shorter.
New Moon, 1% of the Moon is Illuminated
Today
New Moon
Oct 30
First Quarter
Nov 6
Full
Nov 14
Last Quarter
Nov 22
New

Today's Extremes

State Highs State Lows

Community

WunderPhotos

Upload Photos

1,764,646 photos uploaded!

Nearby

Snow Depth

Station Depth Elevation
No new snow has been reported.

Earthquake Activity

City Distance Mag. Time & Date
No recent earthquake activity has been reported nearby.
Minimum magnitude displayed is 2.5.

Coastal Water Temperatures

Place Temperature
No Stations Reporting

Nearby Weather Stations